createdAt,value
2019-03-10T00:00:21.806Z,12.13
2019-03-10T00:02:50.242Z,15.03
2019-03-10T00:05:18.659Z,16.53
2019-03-10T00:07:47.162Z,14.23
2019-03-10T00:10:15.586Z,13.40
2019-03-10T00:12:44.029Z,13.03
2019-03-10T00:15:12.912Z,16.60
2019-03-10T00:17:41.354Z,14.10
2019-03-10T00:20:10.714Z,11.40
2019-03-10T00:22:39.475Z,16.27
2019-03-10T00:25:09.334Z,16.33
2019-03-10T00:27:37.930Z,13.33
2019-03-10T00:30:11.947Z,13.83
2019-03-10T00:32:40.383Z,10.27
2019-03-10T00:35:09.004Z,13.07
2019-03-10T00:37:37.767Z,11.53
2019-03-10T00:40:25.420Z,13.90
2019-03-10T00:42:59.717Z,15.00
2019-03-10T00:45:47.768Z,9.70
2019-03-10T00:48:43.266Z,11.40
2019-03-10T00:51:29.687Z,15.33
2019-03-10T00:53:58.129Z,14.37
2019-03-10T00:56:26.563Z,12.87
2019-03-10T00:58:55.079Z,10.00
2019-03-10T01:01:23.522Z,11.53
2019-03-10T01:03:52.022Z,22.47
2019-03-10T01:06:20.458Z,10.53
2019-03-10T01:08:48.960Z,19.20
2019-03-10T01:11:17.659Z,9.70
2019-03-10T01:13:46.379Z,14.43
2019-03-10T01:16:15.066Z,15.67
2019-03-10T01:18:45.342Z,17.23
2019-03-10T01:21:15.600Z,14.13
2019-03-10T01:23:44.085Z,15.53
2019-03-10T01:26:12.516Z,10.83
2019-03-10T01:28:40.955Z,17.20
2019-03-10T01:31:15.422Z,15.83
2019-03-10T01:34:06.030Z,28.93
2019-03-10T01:36:33.382Z,13.10
2019-03-10T01:39:01.830Z,16.57
2019-03-10T01:41:30.500Z,19.20
2019-03-10T01:43:59.010Z,13.00
2019-03-10T01:46:27.429Z,13.10
2019-03-10T01:48:55.965Z,17.13
2019-03-10T01:51:24.382Z,20.63
2019-03-10T01:53:52.839Z,13.23
2019-03-10T01:56:21.262Z,17.93
2019-03-10T01:58:49.704Z,17.83
2019-03-10T02:01:18.132Z,19.97
2019-03-10T02:03:46.566Z,17.40
2019-03-10T02:06:14.995Z,14.80
2019-03-10T02:08:43.471Z,17.67
2019-03-10T02:11:11.934Z,15.30
2019-03-10T02:13:40.372Z,13.77
2019-03-10T02:16:08.811Z,12.50
2019-03-10T02:18:37.238Z,19.73
2019-03-10T02:21:05.931Z,17.50
2019-03-10T02:23:34.434Z,22.17
2019-03-10T02:26:02.874Z,14.50
2019-03-10T02:28:31.303Z,18.97
2019-03-10T02:30:59.769Z,15.13
2019-03-10T02:33:28.263Z,24.63
2019-03-10T02:35:56.706Z,15.27
2019-03-10T02:38:25.143Z,18.40
2019-03-10T02:40:53.580Z,17.80
2019-03-10T02:43:22.010Z,21.90
2019-03-10T02:45:50.458Z,18.50
2019-03-10T02:48:18.890Z,13.80
2019-03-10T02:50:47.596Z,17.77
2019-03-10T02:53:16.091Z,19.50
2019-03-10T02:55:44.535Z,21.70
2019-03-10T02:58:12.954Z,30.60
2019-03-10T03:00:41.657Z,28.40
2019-03-10T03:03:10.352Z,23.57
2019-03-10T03:05:38.779Z,19.23
2019-03-10T03:08:07.227Z,20.23
2019-03-10T03:10:35.790Z,22.00
2019-03-10T03:13:04.272Z,23.63
2019-03-10T03:15:32.773Z,23.50
2019-03-10T03:18:01.195Z,15.00
2019-03-10T03:20:29.713Z,19.87
2019-03-10T03:22:58.136Z,14.00
2019-03-10T03:25:26.586Z,19.60
2019-03-10T03:27:55.268Z,22.63
2019-03-10T03:30:23.705Z,23.53
2019-03-10T03:32:52.384Z,23.90
2019-03-10T03:35:41.856Z,18.50
2019-03-10T03:38:10.279Z,18.93
2019-03-10T03:40:41.797Z,17.77
2019-03-10T03:43:10.222Z,19.07
2019-03-10T03:45:38.660Z,22.23
2019-03-10T03:48:07.087Z,21.23
2019-03-10T03:50:35.527Z,14.07
2019-03-10T03:53:03.956Z,23.10
2019-03-10T03:55:32.419Z,18.93
2019-03-10T03:58:00.911Z,16.97
2019-03-10T04:00:29.347Z,12.20
2019-03-10T04:02:57.776Z,19.17
2019-03-10T04:05:26.219Z,15.27
2019-03-10T04:07:54.904Z,20.53
2019-03-10T04:10:23.351Z,27.17
2019-03-10T04:12:52.023Z,15.80
2019-03-10T04:15:20.463Z,14.90
2019-03-10T04:17:48.902Z,26.37
2019-03-10T04:20:17.338Z,16.23
2019-03-10T04:22:45.762Z,16.67
2019-03-10T04:25:14.493Z,15.23
2019-03-10T04:27:42.927Z,14.17
2019-03-10T04:30:12.607Z,15.73
2019-03-10T04:32:41.051Z,13.83
2019-03-10T04:35:09.501Z,14.53
2019-03-10T04:37:37.943Z,17.80
2019-03-10T04:40:07.070Z,16.23
2019-03-10T04:42:35.524Z,20.20
2019-03-10T04:45:05.895Z,18.97
2019-03-10T04:47:34.343Z,10.87
2019-03-10T04:50:02.858Z,24.37
2019-03-10T04:52:31.331Z,19.37
2019-03-10T04:55:01.434Z,19.37
2019-03-10T04:57:30.124Z,21.80
2019-03-10T04:59:58.802Z,20.77
2019-03-10T05:02:27.814Z,21.50
2019-03-10T05:04:56.323Z,26.60
2019-03-10T05:07:25.022Z,14.87
2019-03-10T05:09:53.455Z,22.17
2019-03-10T05:12:21.895Z,25.57
2019-03-10T05:14:50.318Z,28.73
2019-03-10T05:17:18.764Z,28.47
2019-03-10T05:19:47.198Z,16.90
2019-03-10T05:22:15.715Z,15.90
2019-03-10T05:24:44.387Z,17.00
2019-03-10T05:27:12.822Z,21.60
2019-03-10T05:29:41.495Z,19.93
2019-03-10T05:32:09.939Z,21.50
2019-03-10T05:34:38.641Z,21.23
2019-03-10T05:37:07.078Z,24.43
2019-03-10T05:39:35.795Z,28.83
2019-03-10T05:42:04.241Z,19.30
2019-03-10T05:44:32.650Z,20.07
2019-03-10T05:47:01.119Z,23.17
2019-03-10T05:49:29.590Z,16.70
2019-03-10T05:51:58.034Z,19.50
2019-03-10T05:54:26.458Z,24.03
2019-03-10T05:56:54.901Z,20.00
2019-03-10T05:59:23.342Z,20.23
2019-03-10T06:01:51.774Z,25.40
2019-03-10T06:04:20.196Z,19.50
2019-03-10T06:06:48.898Z,26.13
2019-03-10T06:09:17.324Z,21.47
2019-03-10T06:11:45.758Z,24.83
2019-03-10T06:14:14.199Z,22.43
2019-03-10T06:16:42.646Z,21.77
2019-03-10T06:19:11.070Z,27.00
2019-03-10T06:21:39.506Z,21.43
2019-03-10T06:24:08.187Z,20.10
2019-03-10T06:26:36.626Z,19.03
2019-03-10T06:29:05.361Z,22.27
2019-03-10T06:31:34.088Z,21.23
2019-03-10T06:34:02.511Z,21.33
2019-03-10T06:36:30.960Z,17.00
2019-03-10T06:38:59.640Z,20.40
2019-03-10T06:41:28.082Z,17.33
2019-03-10T06:43:56.494Z,15.80
2019-03-10T06:46:24.939Z,12.10
2019-03-10T06:48:53.361Z,12.83
2019-03-10T06:51:21.819Z,13.03
2019-03-10T06:53:50.295Z,15.67
2019-03-10T06:56:18.980Z,13.80
2019-03-10T06:58:47.420Z,18.13
2019-03-10T07:01:16.102Z,16.50
2019-03-10T07:03:44.816Z,13.50
2019-03-10T07:06:13.491Z,7.30
2019-03-10T07:08:41.916Z,8.57
2019-03-10T07:11:10.334Z,13.90
2019-03-10T07:13:39.634Z,7.37
2019-03-10T07:16:08.287Z,8.43
2019-03-10T07:18:36.711Z,6.87
2019-03-10T07:21:05.209Z,4.27
2019-03-10T07:23:33.654Z,2.77
2019-03-10T07:26:05.015Z,6.17
2019-03-10T07:28:39.142Z,6.33
2019-03-10T07:31:12.090Z,3.70
2019-03-10T07:33:51.234Z,12.50
2019-03-10T07:36:21.283Z,11.03
2019-03-10T07:39:07.872Z,4.40
2019-03-10T07:41:40.863Z,3.80
2019-03-10T07:44:16.991Z,8.43
2019-03-10T07:46:47.066Z,5.27
2019-03-10T07:49:20.153Z,4.13
2019-03-10T07:52:06.206Z,9.80
2019-03-10T07:54:39.006Z,4.63
2019-03-10T07:57:20.935Z,5.40
2019-03-10T07:59:50.999Z,7.67
2019-03-10T08:02:21.090Z,9.33
2019-03-10T08:04:53.866Z,6.20
2019-03-10T08:07:27.095Z,5.33
2019-03-10T08:09:59.846Z,7.23
2019-03-10T08:12:32.827Z,7.27
2019-03-10T08:15:05.360Z,5.10
2019-03-10T08:17:35.432Z,6.57
2019-03-10T08:20:12.694Z,7.30
2019-03-10T08:22:43.034Z,8.10
2019-03-10T08:25:29.430Z,6.20
2019-03-10T08:28:02.772Z,7.83
2019-03-10T08:30:42.234Z,5.13
2019-03-10T08:33:14.723Z,5.53
2019-03-10T08:36:00.998Z,4.10
2019-03-10T08:38:33.471Z,4.43
2019-03-10T08:41:03.544Z,6.20
2019-03-10T08:43:39.819Z,5.97
2019-03-10T08:46:09.874Z,15.37
2019-03-10T08:48:40.234Z,4.20
2019-03-10T08:51:15.730Z,8.80
2019-03-10T08:53:45.813Z,6.30
2019-03-10T08:56:15.882Z,7.93
2019-03-10T08:58:57.771Z,5.37
2019-03-10T09:01:43.578Z,4.07
2019-03-10T09:04:16.855Z,3.07
2019-03-10T09:06:47.202Z,2.90
2019-03-10T09:09:20.118Z,7.00
2019-03-10T09:11:50.250Z,6.23
2019-03-10T09:14:20.345Z,6.83
2019-03-10T09:16:50.484Z,7.47
2019-03-10T09:19:20.830Z,13.13
2019-03-10T09:21:50.878Z,8.53
2019-03-10T09:24:20.960Z,8.40
2019-03-10T09:26:51.275Z,6.00
2019-03-10T09:29:21.616Z,6.80
2019-03-10T09:31:54.171Z,8.70
2019-03-10T09:34:26.970Z,9.57
2019-03-10T09:36:59.819Z,5.83
2019-03-10T09:39:29.903Z,7.13
2019-03-10T09:42:05.770Z,8.77
2019-03-10T09:44:38.643Z,7.83
2019-03-10T09:47:25.060Z,9.27
2019-03-10T09:49:57.883Z,7.40
2019-03-10T09:52:30.650Z,5.83
2019-03-10T09:55:16.520Z,4.33
2019-03-10T09:57:46.578Z,6.17
2019-03-10T10:00:16.650Z,7.67
2019-03-10T10:02:58.465Z,6.30
2019-03-10T10:05:31.238Z,5.20
2019-03-10T10:08:12.934Z,8.10
2019-03-10T10:10:48.565Z,7.80
2019-03-10T10:13:18.951Z,7.30
2019-03-10T10:16:00.731Z,8.57
2019-03-10T10:18:42.387Z,4.73
2019-03-10T10:21:24.279Z,6.50
2019-03-10T10:24:02.954Z,9.30
2019-03-10T10:26:36.051Z,8.20
2019-03-10T10:29:08.802Z,9.00
2019-03-10T10:31:38.898Z,6.30
2019-03-10T10:34:08.974Z,6.03
2019-03-10T10:36:41.950Z,6.50
2019-03-10T10:39:18.859Z,9.60
2019-03-10T10:41:48.950Z,8.20
2019-03-10T10:44:19.338Z,8.60
2019-03-10T10:46:58.172Z,8.30
2019-03-10T10:49:33.679Z,9.90
2019-03-10T10:52:15.506Z,15.53
2019-03-10T10:54:57.509Z,12.80
2019-03-10T10:57:33.590Z,15.33
2019-03-10T11:00:06.415Z,14.07
2019-03-10T11:02:39.325Z,17.35
2019-03-10T11:05:26.427Z,12.10
2019-03-10T11:07:56.770Z,15.47
2019-03-10T11:10:29.498Z,16.73
2019-03-10T11:13:11.442Z,18.37
2019-03-10T11:15:44.211Z,14.73
2019-03-10T11:18:32.186Z,15.67
2019-03-10T11:21:04.946Z,14.10
2019-03-10T11:23:49.846Z,14.83
2019-03-10T11:26:32.355Z,12.27
2019-03-10T11:29:03.907Z,12.90
2019-03-10T11:31:46.258Z,13.47
2019-03-10T11:34:19.055Z,10.97
2019-03-10T11:36:57.935Z,8.73
2019-03-10T11:39:28.027Z,6.67
2019-03-10T11:41:58.222Z,11.20
2019-03-10T11:44:28.298Z,8.90
2019-03-10T11:47:01.334Z,10.70
2019-03-10T11:49:31.415Z,7.20
2019-03-10T11:52:04.422Z,8.07
2019-03-10T11:54:49.612Z,12.67
2019-03-10T11:57:28.259Z,8.53
2019-03-10T11:59:58.379Z,9.90
2019-03-10T12:02:28.459Z,12.77
2019-03-10T12:05:00.951Z,13.73
2019-03-10T12:07:37.031Z,9.50
2019-03-10T12:10:08.953Z,10.03
2019-03-10T12:12:37.437Z,10.17
2019-03-10T12:15:08.948Z,9.77
2019-03-10T12:17:37.370Z,4.90
2019-03-10T12:20:08.963Z,10.37
2019-03-10T12:22:37.394Z,6.83
2019-03-10T12:25:09.287Z,8.17
2019-03-10T12:27:37.715Z,8.27
2019-03-10T12:30:09.559Z,11.73
2019-03-10T12:32:37.988Z,6.57
2019-03-10T12:35:06.707Z,15.47
2019-03-10T12:37:35.147Z,11.97
2019-03-10T12:40:04.207Z,8.23
2019-03-10T12:42:32.647Z,12.87
2019-03-10T12:45:01.362Z,14.23
2019-03-10T12:47:29.787Z,11.87
2019-03-10T12:49:58.263Z,11.93
2019-03-10T12:52:26.702Z,11.60
2019-03-10T12:54:55.155Z,15.73
2019-03-10T12:57:23.611Z,18.43
2019-03-10T12:59:52.110Z,17.80
2019-03-10T13:02:20.644Z,18.27
2019-03-10T13:04:49.208Z,16.90
2019-03-10T13:07:17.972Z,21.90
2019-03-10T13:09:46.406Z,22.17
2019-03-10T13:12:15.095Z,16.07
2019-03-10T13:14:43.783Z,20.83
2019-03-10T13:17:12.235Z,16.20
2019-03-10T13:19:40.661Z,13.50
2019-03-10T13:22:09.112Z,17.93
2019-03-10T13:24:37.547Z,20.33
2019-03-10T13:27:05.976Z,13.53
2019-03-10T13:29:34.654Z,13.07
2019-03-10T13:32:03.096Z,10.30
2019-03-10T13:34:31.527Z,7.23
2019-03-10T13:36:59.966Z,7.70
2019-03-10T13:39:28.406Z,7.20
2019-03-10T13:41:56.950Z,9.87
2019-03-10T13:44:25.489Z,12.87
2019-03-10T13:46:54.303Z,6.20
2019-03-10T13:49:23.040Z,6.30
2019-03-10T13:51:51.615Z,10.33
2019-03-10T13:54:20.035Z,3.60
2019-03-10T13:56:48.470Z,7.17
2019-03-10T13:59:17.224Z,3.07
2019-03-10T14:01:45.671Z,9.90
2019-03-10T14:04:14.359Z,9.47
2019-03-10T14:06:42.787Z,8.67
2019-03-10T14:09:11.295Z,6.53
2019-03-10T14:11:39.759Z,8.20
2019-03-10T14:14:08.257Z,8.93
2019-03-10T14:16:36.776Z,13.03
2019-03-10T14:19:05.282Z,7.63
2019-03-10T14:21:33.743Z,14.90
2019-03-10T14:24:02.163Z,10.90
2019-03-10T14:26:30.887Z,9.77
2019-03-10T14:28:59.315Z,8.90
2019-03-10T14:31:27.749Z,6.27
2019-03-10T14:33:57.260Z,3.63
2019-03-10T14:36:25.852Z,7.57
2019-03-10T14:38:54.274Z,4.50
2019-03-10T14:41:22.713Z,5.90
2019-03-10T14:43:51.142Z,7.80
2019-03-10T14:46:19.591Z,12.23
2019-03-10T14:48:48.027Z,7.97
2019-03-10T14:51:16.607Z,11.43
2019-03-10T14:53:45.030Z,3.70
2019-03-10T14:56:13.714Z,4.13
2019-03-10T14:58:42.138Z,6.20
2019-03-10T15:01:10.651Z,3.37
2019-03-10T15:03:39.074Z,2.40
2019-03-10T15:06:07.515Z,5.00
2019-03-10T15:08:35.937Z,3.90
2019-03-10T15:11:04.461Z,9.33
2019-03-10T15:13:32.966Z,4.30
2019-03-10T15:16:01.644Z,4.20
2019-03-10T15:18:30.078Z,12.60
2019-03-10T15:20:58.506Z,2.10
2019-03-10T15:23:26.951Z,5.67
2019-03-10T15:25:55.367Z,4.33
2019-03-10T15:28:23.806Z,2.83
2019-03-10T15:30:52.479Z,6.87
2019-03-10T15:33:20.954Z,5.27
2019-03-10T15:35:49.498Z,6.60
2019-03-10T15:38:17.931Z,2.80
2019-03-10T15:40:46.347Z,3.47
2019-03-10T15:43:15.035Z,2.10
2019-03-10T15:45:43.454Z,1.10
2019-03-10T15:48:12.235Z,3.30
2019-03-10T15:50:41.608Z,1.27
2019-03-10T15:53:10.315Z,2.50
2019-03-10T15:55:38.829Z,1.77
2019-03-10T15:58:07.333Z,1.37
2019-03-10T16:00:35.829Z,1.93
2019-03-10T16:03:04.319Z,2.30
2019-03-10T16:05:33.199Z,0.70
2019-03-10T16:08:01.747Z,0.67
2019-03-10T16:10:30.170Z,0.93
2019-03-10T16:12:58.902Z,0.80
2019-03-10T16:15:28.862Z,2.20
2019-03-10T16:17:57.304Z,1.00
2019-03-10T16:20:25.720Z,0.90
2019-03-10T16:22:55.296Z,2.83
2019-03-10T16:25:24.043Z,0.57
2019-03-10T16:27:52.727Z,0.60
2019-03-10T16:30:26.072Z,0.60
2019-03-10T16:32:54.503Z,1.27
2019-03-10T16:35:23.290Z,1.10
2019-03-10T16:37:51.733Z,0.77
2019-03-10T16:40:21.282Z,0.90
2019-03-10T16:42:49.976Z,0.90
2019-03-10T16:45:20.912Z,0.80
2019-03-10T16:47:49.423Z,0.70
2019-03-10T16:50:19.200Z,0.83
2019-03-10T16:52:47.712Z,0.60
2019-03-10T16:55:16.298Z,0.70
2019-03-10T16:57:45.251Z,0.90
2019-03-10T17:00:15.067Z,0.63
2019-03-10T17:02:43.521Z,0.60
2019-03-10T17:05:16.866Z,0.67
2019-03-10T17:07:45.371Z,0.60
2019-03-10T17:10:16.290Z,0.97
2019-03-10T17:12:44.991Z,0.60
2019-03-10T17:15:21.374Z,1.20
2019-03-10T17:17:49.842Z,1.17
2019-03-10T17:20:19.102Z,0.83
2019-03-10T17:22:47.793Z,0.87
2019-03-10T17:25:16.767Z,2.00
2019-03-10T17:27:45.497Z,0.80
2019-03-10T17:30:21.646Z,0.80
2019-03-10T17:32:50.514Z,1.13
2019-03-10T17:35:19.678Z,1.40
2019-03-10T17:37:49.067Z,1.50
2019-03-10T17:40:19.789Z,1.70
2019-03-10T17:42:48.297Z,1.70
2019-03-10T17:45:21.351Z,1.50
2019-03-10T17:47:49.789Z,3.03
2019-03-10T17:50:18.747Z,1.60
2019-03-10T17:52:47.688Z,2.10
2019-03-10T17:55:24.529Z,2.70
2019-03-10T17:57:53.284Z,3.73
2019-03-10T18:00:26.675Z,3.17
2019-03-10T18:02:55.437Z,3.60
2019-03-10T18:05:23.855Z,2.73
2019-03-10T18:07:52.274Z,3.33
2019-03-10T18:10:20.785Z,3.50
2019-03-10T18:12:49.275Z,3.93
2019-03-10T18:15:18.444Z,3.63
2019-03-10T18:17:46.855Z,2.90
2019-03-10T18:20:18.373Z,3.30
2019-03-10T18:22:46.930Z,3.10
2019-03-10T18:25:15.790Z,3.23
2019-03-10T18:27:44.686Z,2.70
2019-03-10T18:30:16.227Z,3.37
2019-03-10T18:32:44.717Z,3.20
2019-03-10T18:35:13.394Z,2.40
2019-03-10T18:37:41.893Z,2.70
2019-03-10T18:40:21.119Z,2.50
2019-03-10T18:42:49.608Z,2.23
2019-03-10T18:45:19.256Z,1.93
2019-03-10T18:47:47.668Z,2.83
2019-03-10T18:50:23.979Z,2.60
2019-03-10T18:52:52.475Z,2.00
2019-03-10T18:55:21.459Z,2.07
2019-03-10T18:57:49.957Z,2.27
2019-03-10T19:00:26.350Z,3.43
2019-03-10T19:02:54.853Z,3.10
2019-03-10T19:05:23.450Z,1.33
2019-03-10T19:07:52.184Z,1.30
2019-03-10T19:10:20.750Z,0.90
2019-03-10T19:12:49.161Z,1.20
2019-03-10T19:15:25.638Z,1.20
2019-03-10T19:17:54.487Z,0.70
2019-03-10T19:20:22.931Z,0.60
2019-03-10T19:22:51.693Z,1.10
2019-03-10T19:25:20.380Z,0.90
2019-03-10T19:27:48.835Z,0.63
2019-03-10T19:30:21.285Z,1.40
2019-03-10T19:32:49.702Z,1.33
2019-03-10T19:35:18.234Z,0.70
2019-03-10T19:37:46.754Z,2.40
2019-03-10T19:40:18.814Z,1.27
2019-03-10T19:42:47.246Z,1.60
2019-03-10T19:45:19.631Z,1.30
2019-03-10T19:47:48.107Z,1.27
2019-03-10T19:50:27.832Z,2.13
2019-03-10T19:52:56.510Z,2.50
2019-03-10T19:55:25.031Z,1.57
2019-03-10T19:57:53.550Z,1.33
2019-03-10T20:00:22.629Z,1.43
2019-03-10T20:02:51.039Z,1.40
2019-03-10T20:05:19.473Z,1.30
2019-03-10T20:07:48.149Z,1.53
2019-03-10T20:10:19.462Z,0.80
2019-03-10T20:12:47.881Z,2.07
2019-03-10T20:15:21.283Z,1.00
2019-03-10T20:17:49.715Z,0.70
2019-03-10T20:20:26.300Z,1.57
2019-03-10T20:22:54.726Z,1.00
2019-03-10T20:25:23.501Z,1.87
2019-03-10T20:27:51.926Z,2.43
2019-03-10T20:30:24.272Z,1.47
2019-03-10T20:32:52.776Z,1.20
2019-03-10T20:35:21.205Z,1.63
2019-03-10T20:37:49.630Z,2.03
2019-03-10T20:40:23.860Z,1.30
2019-03-10T20:42:52.549Z,2.97
2019-03-10T20:45:21.052Z,1.90
2019-03-10T20:47:49.499Z,3.03
2019-03-10T20:50:18.976Z,5.40
2019-03-10T20:52:47.514Z,4.50
2019-03-10T20:55:16.390Z,3.40
2019-03-10T20:57:45.206Z,2.40
2019-03-10T21:00:20.763Z,1.97
2019-03-10T21:02:49.199Z,4.03
2019-03-10T21:05:17.702Z,1.97
2019-03-10T21:07:46.133Z,1.97
2019-03-10T21:10:19.773Z,2.50
2019-03-10T21:12:48.518Z,4.00
2019-03-10T21:15:21.772Z,1.87
2019-03-10T21:17:50.471Z,1.60
2019-03-10T21:20:19.946Z,6.63
2019-03-10T21:22:48.406Z,3.17
2019-03-10T21:25:21.550Z,2.30
2019-03-10T21:27:50.042Z,3.03
2019-03-10T21:30:23.030Z,6.37
2019-03-10T21:32:51.714Z,1.43
2019-03-10T21:35:20.152Z,2.03
2019-03-10T21:37:48.644Z,2.07
2019-03-10T21:40:33.402Z,3.53
2019-03-10T21:43:02.193Z,1.57
2019-03-10T21:45:31.053Z,2.27
2019-03-10T21:47:59.498Z,2.37
2019-03-10T21:50:28.259Z,5.70
2019-03-10T21:52:56.763Z,5.97
2019-03-10T21:55:25.202Z,3.73
2019-03-10T21:57:53.632Z,3.57
2019-03-10T22:00:22.086Z,4.83
2019-03-10T22:02:50.506Z,4.07
2019-03-10T22:05:19.277Z,4.30
2019-03-10T22:07:48.199Z,4.70
2019-03-10T22:10:27.120Z,4.30
2019-03-10T22:12:50.576Z,8.50
2019-03-10T22:15:20.163Z,4.20
2019-03-10T22:17:48.638Z,6.00
2019-03-10T22:20:18.066Z,5.67
2019-03-10T22:22:49.355Z,7.43
2019-03-10T22:25:16.837Z,5.43
2019-03-10T22:27:46.084Z,2.83
2019-03-10T22:30:20.626Z,2.63
2019-03-10T22:32:49.094Z,5.07
2019-03-10T22:35:17.543Z,7.07
2019-03-10T22:37:46.134Z,7.50
2019-03-10T22:40:15.442Z,9.00
2019-03-10T22:42:43.938Z,9.10
2019-03-10T22:45:16.602Z,8.87
2019-03-10T22:47:45.383Z,4.67
2019-03-10T22:50:14.755Z,5.70
2019-03-10T22:52:43.448Z,7.40
2019-03-10T22:55:12.614Z,6.67
2019-03-10T22:57:41.299Z,7.40
2019-03-10T23:00:15.753Z,10.00
2019-03-10T23:02:44.197Z,5.47
2019-03-10T23:05:12.613Z,9.50
2019-03-10T23:07:41.359Z,10.33
2019-03-10T23:10:14.416Z,9.70
2019-03-10T23:12:43.019Z,4.50
2019-03-10T23:15:14.982Z,6.50
2019-03-10T23:17:43.435Z,11.27
2019-03-10T23:20:13.601Z,9.40
2019-03-10T23:22:42.113Z,8.40
2019-03-10T23:25:10.749Z,9.00
2019-03-10T23:27:39.188Z,7.73
2019-03-10T23:30:18.534Z,6.03
2019-03-10T23:32:47.072Z,7.60
2019-03-10T23:35:15.590Z,9.70
2019-03-10T23:37:44.023Z,7.40
2019-03-10T23:40:14.766Z,9.67
2019-03-10T23:42:43.455Z,6.60
2019-03-10T23:45:13.519Z,10.87
2019-03-10T23:47:41.959Z,11.60
2019-03-10T23:50:16.199Z,9.13
2019-03-10T23:52:45.159Z,7.33
2019-03-10T23:55:14.189Z,4.10
2019-03-10T23:57:43.023Z,9.50
